Time;durP1;ratioP1;P1;durP2;ratioP2;P2;SDS_P1;SDS_P2;PMS_P1;PMS_P2;Temp;Humidity;BMP_temperature;BMP_pressure;BME280_temperature;BME280_humidity;BME280_pressure;Samples;Min_cycle;Max_cycle;Signal;HPM_P1;HPM_P2
2022/05/28 00:00:28;;;;;;;13.90;4.57;;;11.50;99.90;;;;;;4924434;29;20229;-84
2022/05/28 00:02:54;;;;;;;8.70;4.70;;;11.50;99.90;;;;;;4921071;29;20434;-83
2022/05/28 00:05:20;;;;;;;8.30;4.70;;;11.40;99.90;;;;;;4919424;29;20437;-83
2022/05/28 00:07:46;;;;;;;8.17;5.50;;;11.30;99.90;;;;;;4923986;29;20242;-84
2022/05/28 00:10:14;;;;;;;7.13;4.70;;;11.30;99.90;;;;;;4927363;29;20457;-84
2022/05/28 00:12:40;;;;;;;7.05;4.50;;;11.30;99.90;;;;;;4939308;28;20745;-83
2022/05/28 00:15:07;;;;;;;12.87;5.37;;;11.20;99.90;;;;;;4924455;29;20193;-86
2022/05/28 00:17:33;;;;;;;10.65;4.80;;;11.10;99.90;;;;;;4939336;29;20483;-89
2022/05/28 00:19:59;;;;;;;8.00;5.18;;;11.00;99.90;;;;;;4937119;29;20216;-86
2022/05/28 00:22:24;;;;;;;9.18;5.38;;;11.00;99.90;;;;;;4924533;29;20189;-83
2022/05/28 00:24:50;;;;;;;8.43;5.83;;;10.90;99.90;;;;;;4923114;29;20275;-83
2022/05/28 00:27:16;;;;;;;13.87;5.30;;;10.80;99.90;;;;;;4923991;29;20782;-83
2022/05/28 00:29:41;;;;;;;11.07;5.50;;;10.60;99.90;;;;;;4923761;29;20308;-83
2022/05/28 00:32:07;;;;;;;9.63;6.00;;;10.50;99.90;;;;;;4922137;29;20656;-83
2022/05/28 00:34:34;;;;;;;8.63;5.00;;;10.40;99.90;;;;;;4922312;29;20221;-85
2022/05/28 00:37:00;;;;;;;8.23;4.78;;;10.40;99.90;;;;;;4924222;29;20964;-85
2022/05/28 00:39:26;;;;;;;7.60;4.93;;;;;;;;;;4927168;29;20193;-85
2022/05/28 00:41:52;;;;;;;9.20;5.30;;;;;;;;;;4927840;29;20611;-85
2022/05/28 00:44:18;;;;;;;7.93;4.73;;;;;;;;;;4923353;29;20437;-85
2022/05/28 00:46:44;;;;;;;7.53;4.40;;;;;;;;;;4925719;29;20484;-85
2022/05/28 00:49:17;;;;;;;12.40;5.72;;;10.00;99.90;;;;;;4923360;29;20803;-85
2022/05/28 00:51:46;;;;;;;8.98;4.47;;;10.00;99.90;;;;;;4921013;29;20267;-84
2022/05/28 00:54:12;;;;;;;8.70;4.32;;;10.00;99.90;;;;;;4922886;29;20186;-84
2022/05/28 00:56:38;;;;;;;6.80;3.55;;;10.00;99.90;;;;;;4919153;29;20194;-84
2022/05/28 00:59:03;;;;;;;9.13;3.27;;;10.00;99.90;;;;;;4922263;29;20802;-83
2022/05/28 01:01:33;;;;;;;8.73;3.93;;;10.10;99.90;;;;;;4917352;29;20221;-83
2022/05/28 01:04:17;;;;;;;6.72;3.28;;;10.20;99.90;;;;;;4921023;29;20685;-83
2022/05/28 01:06:45;;;;;;;6.57;3.58;;;10.30;99.90;;;;;;4922071;29;20630;-83
2022/05/28 01:09:34;;;;;;;7.18;3.05;;;10.30;99.90;;;;;;4930322;29;20186;-83
2022/05/28 01:12:10;;;;;;;6.25;2.60;;;;;;;;;;4920148;29;20540;-82
2022/05/28 01:14:55;;;;;;;10.10;3.75;;;10.20;99.90;;;;;;4922329;29;20188;-82
2022/05/28 01:17:41;;;;;;;10.68;2.50;;;10.20;99.90;;;;;;4919159;29;20213;-82
2022/05/28 01:20:24;;;;;;;5.13;2.55;;;10.00;99.90;;;;;;4919794;29;20221;-82
2022/05/28 01:23:38;;;;;;;10.30;2.80;;;10.00;99.90;;;;;;4927110;29;20214;-82
2022/05/28 01:26:18;;;;;;;11.20;2.65;;;9.90;99.90;;;;;;4865843;29;20192;-83
2022/05/28 01:28:52;;;;;;;12.13;3.80;;;9.90;99.90;;;;;;4918742;29;20236;-83
2022/05/28 01:31:19;;;;;;;8.15;4.25;;;9.90;99.90;;;;;;4921488;29;20209;-82
2022/05/28 01:33:45;;;;;;;11.85;4.10;;;9.80;99.90;;;;;;4919996;29;20774;-82
2022/05/28 01:36:14;;;;;;;10.10;3.80;;;9.70;99.90;;;;;;4919470;29;20261;-82
2022/05/28 01:38:42;;;;;;;6.97;3.17;;;9.60;99.90;;;;;;4924327;29;20544;-83
2022/05/28 01:41:09;;;;;;;9.85;3.15;;;9.50;99.90;;;;;;4925656;29;20197;-82
2022/05/28 01:43:40;;;;;;;7.32;2.95;;;9.40;99.90;;;;;;4925843;29;20233;-84
2022/05/28 01:46:06;;;;;;;11.50;3.70;;;9.40;99.90;;;;;;4924552;29;20702;-82
2022/05/28 01:48:32;;;;;;;12.45;3.70;;;9.30;99.90;;;;;;4924655;29;20182;-81
2022/05/28 01:51:00;;;;;;;9.20;3.57;;;9.30;99.90;;;;;;4923606;29;20220;-84
2022/05/28 01:56:11;;;;;;;15.35;3.88;;;9.30;99.90;;;;;;4924769;29;20192;-82
2022/05/28 01:58:37;;;;;;;9.18;3.20;;;9.20;99.90;;;;;;4921819;29;20208;-82
2022/05/28 02:01:05;;;;;;;9.70;2.75;;;9.10;99.90;;;;;;4923700;29;20308;-82
2022/05/28 02:03:33;;;;;;;18.55;3.97;;;9.20;99.90;;;;;;4921701;29;20269;-82
2022/05/28 02:05:59;;;;;;;7.30;3.30;;;9.20;99.90;;;;;;4928822;29;20686;-81
2022/05/28 02:08:26;;;;;;;16.30;3.20;;;9.20;99.90;;;;;;4920919;29;20238;-81
2022/05/28 02:11:14;;;;;;;9.88;3.10;;;9.20;99.90;;;;;;4930106;29;20333;-81
2022/05/28 02:14:13;;;;;;;12.10;2.90;;;9.20;99.90;;;;;;4925616;29;20182;-82
2022/05/28 02:17:17;;;;;;;8.50;3.25;;;9.10;99.90;;;;;;4925585;29;20330;-82
2022/05/28 02:20:01;;;;;;;6.40;2.55;;;9.00;99.90;;;;;;4924080;29;20645;-81
2022/05/28 02:22:43;;;;;;;10.05;2.50;;;9.10;99.90;;;;;;4928139;29;20194;-82
2022/05/28 02:25:23;;;;;;;14.40;2.63;;;9.10;99.90;;;;;;4922251;29;20631;-81
2022/05/28 02:27:50;;;;;;;8.57;2.65;;;9.10;99.90;;;;;;4923038;29;20196;-82
2022/05/28 02:30:16;;;;;;;10.88;2.53;;;9.10;99.90;;;;;;4922385;29;20226;-81
2022/05/28 02:32:42;;;;;;;12.13;2.80;;;9.10;99.90;;;;;;4923566;29;20445;-81
2022/05/28 02:35:09;;;;;;;8.33;1.70;;;9.00;99.90;;;;;;4922114;29;20201;-81
2022/05/28 02:37:35;;;;;;;7.72;3.00;;;8.80;99.90;;;;;;4921492;29;20209;-81
2022/05/28 02:40:01;;;;;;;12.83;3.57;;;8.60;99.90;;;;;;4923224;29;20601;-82
2022/05/28 02:42:26;;;;;;;9.90;3.07;;;8.60;99.90;;;;;;4924335;29;20173;-82
2022/05/28 02:44:52;;;;;;;11.43;3.57;;;8.50;99.90;;;;;;4925929;29;21283;-81
2022/05/28 02:47:17;;;;;;;13.70;2.70;;;8.40;99.90;;;;;;4923882;29;20181;-81
2022/05/28 02:49:43;;;;;;;9.70;2.30;;;8.30;99.90;;;;;;4928664;29;20212;-81
2022/05/28 02:52:09;;;;;;;10.30;2.90;;;9.10;99.90;;;;;;4923823;29;20192;-83
2022/05/28 02:54:35;;;;;;;6.57;2.25;;;8.30;99.90;;;;;;4922437;29;20181;-83
2022/05/28 02:57:02;;;;;;;6.05;2.10;;;8.30;99.90;;;;;;4920398;29;20221;-83
2022/05/28 02:59:28;;;;;;;10.43;2.60;;;8.20;99.90;;;;;;4923916;29;20269;-83
2022/05/28 03:01:53;;;;;;;5.90;2.70;;;8.30;99.90;;;;;;4925464;29;20663;-82
2022/05/28 03:04:19;;;;;;;17.90;2.77;;;8.20;99.90;;;;;;4925896;29;20192;-85
2022/05/28 03:06:44;;;;;;;9.77;2.70;;;8.10;99.90;;;;;;4928160;29;20200;-85
2022/05/28 03:09:11;;;;;;;9.77;2.80;;;8.00;99.90;;;;;;4923213;29;20912;-83
2022/05/28 03:11:37;;;;;;;7.05;2.63;;;8.00;99.90;;;;;;4925616;29;20214;-83
2022/05/28 03:14:04;;;;;;;8.50;2.05;;;8.00;99.90;;;;;;4924816;29;20337;-81
2022/05/28 03:16:30;;;;;;;10.45;2.35;;;8.00;99.90;;;;;;4924850;29;20189;-83
2022/05/28 03:18:55;;;;;;;6.73;2.70;;;7.90;99.90;;;;;;4923318;29;20205;-82
2022/05/28 03:21:21;;;;;;;12.43;2.93;;;7.90;99.90;;;;;;4921173;29;20448;-83
2022/05/28 03:23:47;;;;;;;14.10;2.20;;;7.80;99.90;;;;;;4928122;29;20249;-83
2022/05/28 03:26:25;;;;;;;12.52;2.78;;;7.70;99.90;;;;;;4924282;29;20808;-82
2022/05/28 03:28:51;;;;;;;7.03;2.88;;;7.70;99.90;;;;;;4923618;29;20186;-83
2022/05/28 03:31:18;;;;;;;11.15;2.78;;;7.60;99.90;;;;;;4924492;29;20200;-82
2022/05/28 03:33:43;;;;;;;7.30;3.00;;;7.60;99.90;;;;;;4922871;29;20186;-82
2022/05/28 03:36:09;;;;;;;3.43;2.00;;;7.60;99.90;;;;;;4921286;29;20264;-82
2022/05/28 03:38:35;;;;;;;4.37;2.23;;;7.50;99.90;;;;;;4922151;29;20468;-83
2022/05/28 03:41:01;;;;;;;6.13;3.08;;;7.40;99.90;;;;;;4929517;29;20214;-84
2022/05/28 03:43:27;;;;;;;12.30;3.30;;;7.40;99.90;;;;;;4932514;29;20246;-86
2022/05/28 03:45:53;;;;;;;20.23;3.58;;;7.40;99.90;;;;;;4930500;29;20517;-86
2022/05/28 03:48:19;;;;;;;8.07;2.70;;;7.40;99.90;;;;;;4931595;29;20185;-86
2022/05/28 03:50:45;;;;;;;6.43;2.00;;;7.40;99.90;;;;;;4926266;29;20197;-85
2022/05/28 03:53:11;;;;;;;10.43;2.60;;;7.40;99.90;;;;;;4928411;29;20433;-84
2022/05/28 03:55:39;;;;;;;7.30;2.85;;;7.50;99.90;;;;;;4929036;29;20192;-85
2022/05/28 03:58:05;;;;;;;7.55;2.97;;;7.60;99.90;;;;;;4923503;29;20218;-85
2022/05/28 04:00:30;;;;;;;12.33;2.33;;;7.80;99.90;;;;;;4923918;29;20197;-85
2022/05/28 04:02:57;;;;;;;13.40;2.17;;;7.90;99.90;;;;;;4926892;29;20529;-85
2022/05/28 04:05:23;;;;;;;23.15;3.28;;;7.90;99.90;;;;;;4923501;29;20539;-85
2022/05/28 04:07:49;;;;;;;13.60;3.13;;;7.80;99.90;;;;;;4922374;29;20593;-86
2022/05/28 04:10:15;;;;;;;13.90;3.78;;;8.00;99.90;;;;;;4924491;29;20232;-84
2022/05/28 04:12:40;;;;;;;10.83;2.70;;;8.00;99.90;;;;;;4927163;29;20194;-86
2022/05/28 04:15:07;;;;;;;12.03;3.30;;;8.10;99.90;;;;;;4926204;29;20185;-87
2022/05/28 04:17:33;;;;;;;11.57;2.80;;;;;;;;;;4925759;29;20663;-87
2022/05/28 04:19:58;;;;;;;7.30;2.92;;;10.40;99.90;;;;;;4933417;29;20212;-87
2022/05/28 04:22:25;;;;;;;12.93;2.30;;;;;;;;;;4923626;29;20190;-84
2022/05/28 04:24:51;;;;;;;11.70;1.92;;;13.00;99.90;;;;;;4921664;29;20185;-85
2022/05/28 04:27:17;;;;;;;7.80;2.20;;;;;;;;;;4923458;29;20718;-86
2022/05/28 04:29:42;;;;;;;8.60;2.47;;;15.80;99.90;;;;;;4925669;29;20555;-85
2022/05/28 04:32:08;;;;;;;4.43;1.80;;;18.20;99.90;;;;;;4924750;29;20923;-86
2022/05/28 04:34:34;;;;;;;7.40;2.10;;;;;;;;;;4926553;29;20268;-86
2022/05/28 04:36:59;;;;;;;6.97;2.10;;;20.10;99.90;;;;;;4925860;29;20217;-86
2022/05/28 04:39:25;;;;;;;7.03;2.30;;;19.30;99.90;;;;;;4925956;29;20839;-86
2022/05/28 04:41:51;;;;;;;11.23;2.77;;;19.30;99.90;;;;;;4928491;29;20185;-87
2022/05/28 04:44:17;;;;;;;7.90;2.13;;;;;;;;;;4924965;29;20196;-86
2022/05/28 04:46:43;;;;;;;6.87;2.10;;;;;;;;;;4920975;29;20444;-86
2022/05/28 04:49:09;;;;;;;10.03;2.50;;;;;;;;;;4925771;29;20441;-87
2022/05/28 04:51:34;;;;;;;7.53;2.37;;;16.80;99.90;;;;;;4934806;29;20480;-87
2022/05/28 04:54:00;;;;;;;9.27;2.87;;;;;;;;;;4931259;29;20455;-86
2022/05/28 04:56:26;;;;;;;9.60;2.33;;;;;;;;;;4926544;29;20185;-86
2022/05/28 04:58:52;;;;;;;4.23;1.90;;;16.20;99.90;;;;;;4927696;29;20536;-86
2022/05/28 05:01:20;;;;;;;11.50;2.60;;;16.30;99.90;;;;;;4929036;29;20526;-87
2022/05/28 05:03:46;;;;;;;6.00;2.37;;;17.20;99.90;;;;;;4926843;29;20197;-87
2022/05/28 05:06:11;;;;;;;10.40;2.30;;;;;;;;;;4928954;29;20426;-87
2022/05/28 05:08:37;;;;;;;10.80;2.90;;;;;;;;;;4925315;29;20272;-86
2022/05/28 05:11:03;;;;;;;12.47;2.80;;;;;;;;;;4929220;29;20540;-87
2022/05/28 05:13:29;;;;;;;9.40;2.33;;;;;;;;;;4922158;29;20446;-86
2022/05/28 05:15:56;;;;;;;6.83;1.87;;;;;;;;;;4925120;29;21238;-87
2022/05/28 05:18:21;;;;;;;10.13;2.40;;;17.20;99.90;;;;;;4926574;29;20484;-85
2022/05/28 05:20:48;;;;;;;14.33;2.90;;;;;;;;;;4928855;29;21230;-86
2022/05/28 05:23:13;;;;;;;12.50;2.33;;;17.20;99.90;;;;;;4929976;29;20637;-82
2022/05/28 05:25:39;;;;;;;6.70;2.40;;;17.30;99.90;;;;;;4925843;29;20560;-81
2022/05/28 05:28:05;;;;;;;9.07;1.90;;;16.90;99.90;;;;;;4927072;29;22067;-82
2022/05/28 05:30:31;;;;;;;14.83;3.00;;;16.70;99.90;;;;;;4924321;29;20210;-82
2022/05/28 05:32:56;;;;;;;5.93;2.00;;;16.90;99.90;;;;;;4930767;29;20440;-81
2022/05/28 05:35:22;;;;;;;4.07;1.60;;;17.20;99.90;;;;;;4923968;29;20192;-81
2022/05/28 05:37:48;;;;;;;6.47;2.90;;;18.70;99.90;;;;;;4928065;29;20284;-81
2022/05/28 05:40:14;;;;;;;5.77;1.90;;;18.60;99.00;;;;;;4924525;29;20453;-81
2022/05/28 05:42:40;;;;;;;8.90;2.57;;;19.10;96.70;;;;;;4926932;29;20198;-83
2022/05/28 05:45:06;;;;;;;3.87;1.70;;;19.00;96.90;;;;;;4927270;29;20500;-82
2022/05/28 05:47:32;;;;;;;5.30;1.70;;;19.50;97.20;;;;;;4925419;29;20185;-84
2022/05/28 05:49:58;;;;;;;10.97;2.70;;;;;;;;;;4932972;29;20476;-85
2022/05/28 05:52:24;;;;;;;13.30;2.73;;;;;;;;;;4926733;29;20193;-83
2022/05/28 05:54:50;;;;;;;10.97;2.80;;;;;;;;;;4929301;29;20447;-83
2022/05/28 05:57:16;;;;;;;7.90;2.10;;;;;;;;;;4927061;29;20502;-81
2022/05/28 05:59:42;;;;;;;19.67;2.30;;;;;;;;;;4928725;29;20460;-88
2022/05/28 06:02:08;;;;;;;2.83;1.37;;;18.80;94.70;;;;;;4930226;29;20441;-83
2022/05/28 06:04:34;;;;;;;9.30;2.43;;;;;;;;;;4927155;29;20446;-83
2022/05/28 06:07:00;;;;;;;7.63;2.43;;;;;;;;;;4925541;29;20536;-84
2022/05/28 06:09:26;;;;;;;6.20;2.57;;;;;;;;;;4923772;28;20448;-82
2022/05/28 06:11:52;;;;;;;7.17;2.70;;;;;;;;;;4924658;29;20461;-83
2022/05/28 06:14:18;;;;;;;5.97;2.07;;;;;;;;;;4924842;29;20442;-81
2022/05/28 06:16:44;;;;;;;5.30;1.73;;;;;;;;;;4925462;29;20441;-81
2022/05/28 06:19:10;;;;;;;6.67;2.03;;;;;;;;;;4922757;29;20473;-81
2022/05/28 06:21:36;;;;;;;6.63;2.30;;;;;;;;;;4922191;29;21636;-82
2022/05/28 06:24:02;;;;;;;7.10;2.20;;;24.60;80.10;;;;;;4917511;29;20947;-84
2022/05/28 06:26:29;;;;;;;6.70;1.50;;;;;;;;;;4916441;29;20449;-81
2022/05/28 06:28:55;;;;;;;7.73;2.00;;;;;;;;;;4919393;29;20515;-82
2022/05/28 06:31:21;;;;;;;2.60;1.20;;;;;;;;;;4915665;29;20477;-81
2022/05/28 06:33:47;;;;;;;7.53;1.97;;;;;;;;;;4921782;29;20464;-82
2022/05/28 06:36:13;;;;;;;4.63;2.33;;;24.40;76.20;;;;;;4924252;29;20923;-83
2022/05/28 06:38:39;;;;;;;6.90;2.40;;;23.40;70.40;;;;;;4923331;29;20523;-82
2022/05/28 06:41:06;;;;;;;7.93;1.93;;;22.20;77.50;;;;;;4926180;29;20525;-83
2022/05/28 06:43:32;;;;;;;9.17;2.00;;;23.60;83.70;;;;;;4924386;29;20436;-84
2022/05/28 06:46:05;;;;;;;9.60;2.40;;;25.10;74.10;;;;;;4925273;29;20503;-81
2022/05/28 06:48:31;;;;;;;5.70;1.93;;;25.20;70.70;;;;;;4923594;29;20445;-81
2022/05/28 06:51:03;;;;;;;5.97;2.03;;;;;;;;;;4923594;29;20687;-83
2022/05/28 06:53:34;;;;;;;9.53;2.30;;;25.60;68.80;;;;;;4930487;29;20429;-82
2022/05/28 06:56:00;;;;;;;6.57;2.10;;;;;;;;;;4924285;29;20947;-83
2022/05/28 06:58:26;;;;;;;8.87;2.27;;;;;;;;;;4931611;29;20555;-79
2022/05/28 07:00:51;;;;;;;5.77;1.80;;;27.20;68.40;;;;;;4927005;29;20548;-80
2022/05/28 07:03:21;;;;;;;5.53;1.67;;;27.60;60.70;;;;;;4926526;29;20453;-80
2022/05/28 07:05:47;;;;;;;3.83;1.73;;;28.60;64.20;;;;;;4923140;29;20447;-82
2022/05/28 07:08:14;;;;;;;3.80;1.30;;;;;;;;;;4926093;29;20440;-82
2022/05/28 07:10:44;;;;;;;6.97;1.60;;;25.30;56.40;;;;;;4930238;29;20457;-82
2022/05/28 07:13:10;;;;;;;5.63;2.10;;;23.60;66.10;;;;;;4928970;29;20442;-82
2022/05/28 07:15:36;;;;;;;7.17;1.90;;;;;;;;;;4921539;29;20452;-83
2022/05/28 07:18:02;;;;;;;9.80;2.13;;;;;;;;;;4922090;29;20469;-81
2022/05/28 07:20:28;;;;;;;5.60;1.80;;;;;;;;;;4922273;29;20445;-84
2022/05/28 07:22:54;;;;;;;3.80;1.47;;;;;;;;;;4925342;29;21003;-83
2022/05/28 07:25:21;;;;;;;5.13;2.27;;;28.90;58.80;;;;;;4928334;29;20503;-92
2022/05/28 07:45:23;;;;;;;5.00;2.30;;;24.10;53.50;;;;;;4927202;29;20410;-88
2022/05/28 07:48:15;;;;;;;5.03;1.67;;;25.50;57.70;;;;;;4919457;29;20941;-88
2022/05/28 07:50:41;;;;;;;9.93;2.47;;;;;;;;;;4921306;29;20583;-88
2022/05/28 07:53:08;;;;;;;5.93;1.90;;;24.20;55.70;;;;;;4923145;29;20544;-87
2022/05/28 07:55:34;;;;;;;5.27;1.60;;;;;;;;;;4929745;29;20816;-89
2022/05/28 07:58:12;;;;;;;12.13;2.30;;;25.60;56.20;;;;;;4928269;29;20540;-87
2022/05/28 08:00:46;;;;;;;8.53;2.13;;;24.10;54.00;;;;;;4920974;29;20556;-89
2022/05/28 08:03:13;;;;;;;4.70;1.97;;;25.70;55.30;;;;;;4921904;29;20853;-86
2022/05/28 08:05:42;;;;;;;4.70;1.50;;;23.80;54.90;;;;;;4933662;28;20480;-87
2022/05/28 08:08:09;;;;;;;3.50;1.97;;;23.90;58.20;;;;;;4927996;29;20472;-87
2022/05/28 08:10:35;;;;;;;7.37;1.97;;;;;;;;;;4922974;29;20504;-85
2022/05/28 08:13:12;;;;;;;4.77;1.50;;;25.90;55.40;;;;;;4921346;29;20471;-84
2022/05/28 08:15:40;;;;;;;6.20;1.53;;;24.60;54.80;;;;;;4920142;29;20453;-86
2022/05/28 08:18:07;;;;;;;4.50;1.77;;;24.50;55.30;;;;;;4931239;29;21457;-86
2022/05/28 08:23:18;;;;;;;5.30;1.73;;;20.90;67.50;;;;;;4924441;29;20481;-85
2022/05/28 08:25:45;;;;;;;7.23;2.23;;;20.90;62.40;;;;;;4926196;29;20479;-86
2022/05/28 08:28:12;;;;;;;4.63;1.80;;;19.60;61.00;;;;;;4924421;29;20535;-86
2022/05/28 08:30:39;;;;;;;4.47;1.80;;;20.00;68.50;;;;;;4919723;29;20875;-85
2022/05/28 08:33:06;;;;;;;7.97;2.20;;;20.00;69.10;;;;;;4927016;29;20441;-86
2022/05/28 08:35:32;;;;;;;6.63;1.90;;;;;;;;;;4921388;29;20491;-85
2022/05/28 08:38:03;;;;;;;5.33;2.10;;;22.30;65.70;;;;;;4922305;29;20470;-87
2022/05/28 08:40:29;;;;;;;9.57;2.00;;;;;;;;;;4921366;28;20452;-87
2022/05/28 08:42:55;;;;;;;9.03;1.63;;;;;;;;;;4928091;29;20448;-87
2022/05/28 08:45:21;;;;;;;9.33;2.00;;;;;;;;;;4920654;29;20432;-87
2022/05/28 08:47:48;;;;;;;7.10;1.73;;;22.40;62.40;;;;;;4919808;29;20441;-87
2022/05/28 08:50:14;;;;;;;5.33;1.67;;;;;;;;;;4930291;29;20504;-86
2022/05/28 08:52:53;;;;;;;7.90;1.40;;;21.20;63.80;;;;;;4926731;29;20433;-86
2022/05/28 08:55:22;;;;;;;4.63;1.60;;;20.50;62.60;;;;;;4926524;29;20437;-84
2022/05/28 08:58:01;;;;;;;6.00;2.03;;;18.90;66.70;;;;;;4921675;29;20497;-85
2022/05/28 09:00:47;;;;;;;5.23;1.60;;;17.70;73.50;;;;;;4928888;28;21500;-86
2022/05/28 09:03:22;;;;;;;5.37;1.40;;;18.10;78.10;;;;;;4922788;29;20452;-83
2022/05/28 09:05:54;;;;;;;9.03;2.20;;;17.90;77.30;;;;;;4923702;29;20444;-87
2022/05/28 09:08:28;;;;;;;14.90;1.90;;;17.80;77.60;;;;;;4925276;29;20441;-87
2022/05/28 09:10:56;;;;;;;5.27;2.30;;;17.40;79.60;;;;;;4925315;29;20475;-87
2022/05/28 09:13:43;;;;;;;6.10;1.60;;;17.40;80.40;;;;;;4928050;29;20452;-86
2022/05/28 09:16:26;;;;;;;8.03;1.60;;;18.10;83.80;;;;;;4932053;29;20449;-87
2022/05/28 09:18:54;;;;;;;5.27;1.90;;;18.40;81.20;;;;;;4927663;29;20842;-87
2022/05/28 09:21:21;;;;;;;5.07;1.83;;;20.20;71.20;;;;;;4927453;29;20457;-84
2022/05/28 09:24:02;;;;;;;7.27;1.90;;;20.10;70.60;;;;;;4927998;29;20441;-88
2022/05/28 09:26:57;;;;;;;5.33;1.73;;;20.60;74.80;;;;;;4930667;29;20456;-86
2022/05/28 09:29:44;;;;;;;7.10;1.30;;;21.20;70.50;;;;;;4889327;29;20465;-84
2022/05/28 09:32:26;;;;;;;7.00;1.30;;;20.60;71.00;;;;;;4926481;29;20513;-85
2022/05/28 09:35:18;;;;;;;9.80;2.00;;;19.60;71.40;;;;;;4926509;29;20436;-87
2022/05/28 09:38:12;;;;;;;4.80;1.50;;;19.70;72.50;;;;;;4892776;29;20496;-88
2022/05/28 09:40:50;;;;;;;2.43;1.50;;;20.00;72.80;;;;;;4925419;29;21001;-87
2022/05/28 09:43:44;;;;;;;6.80;1.80;;;19.90;71.20;;;;;;4926344;29;20426;-86
2022/05/28 09:46:10;;;;;;;7.70;2.27;;;;;;;;;;4927407;29;20431;-87
2022/05/28 09:48:36;;;;;;;8.47;1.60;;;;;;;;;;4927212;29;20453;-85
2022/05/28 09:51:02;;;;;;;5.80;1.40;;;;;;;;;;4927028;29;22522;-87
2022/05/28 09:56:35;;;;;;;3.10;1.40;;;24.10;62.80;;;;;;4924608;29;20555;-85
2022/05/28 09:59:04;;;;;;;8.63;2.20;;;20.60;59.60;;;;;;4924598;29;20469;-88
2022/05/28 10:01:31;;;;;;;6.13;1.50;;;;;;;;;;4923171;29;20457;-83
2022/05/28 10:06:51;;;;;;;9.00;2.83;;;22.30;70.10;;;;;;4924593;29;20513;-88
2022/05/28 10:09:24;;;;;;;15.30;2.50;;;22.40;68.20;;;;;;4921846;29;20962;-85
2022/05/28 10:11:54;;;;;;;7.60;1.87;;;19.90;66.80;;;;;;4924777;29;20505;-83
2022/05/28 10:14:21;;;;;;;6.47;1.53;;;;;;;;;;4928604;29;20424;-87
2022/05/28 10:16:48;;;;;;;8.20;1.67;;;18.70;64.30;;;;;;4928566;29;20827;-85
2022/05/28 10:19:42;;;;;;;9.77;1.70;;;17.00;75.80;;;;;;4922689;29;20441;-84
2022/05/28 10:22:28;;;;;;;4.40;1.70;;;17.00;76.50;;;;;;4931212;29;20442;-85
2022/05/28 10:25:04;;;;;;;3.20;1.13;;;18.50;80.50;;;;;;4924977;29;20441;-88
2022/05/28 10:27:34;;;;;;;3.03;1.33;;;20.50;65.90;;;;;;4926385;29;20441;-85
2022/05/28 10:30:04;;;;;;;5.83;1.27;;;20.30;64.80;;;;;;4926421;29;20534;-86
2022/05/28 10:32:49;;;;;;;2.23;1.07;;;20.30;65.50;;;;;;4926661;29;20459;-86
2022/05/28 10:35:28;;;;;;;5.47;1.40;;;19.40;67.00;;;;;;4925394;29;20438;-89
2022/05/28 10:38:07;;;;;;;5.70;1.20;;;18.70;70.50;;;;;;4928503;29;21109;-86
2022/05/28 10:40:37;;;;;;;6.00;1.93;;;19.30;72.70;;;;;;4933626;29;20477;-86
2022/05/28 10:43:05;;;;;;;5.47;1.20;;;19.30;72.20;;;;;;4929312;29;21428;-89
2022/05/28 10:45:46;;;;;;;8.33;1.47;;;19.50;67.30;;;;;;4923325;29;21208;-86
2022/05/28 10:48:33;;;;;;;6.10;1.70;;;21.00;68.70;;;;;;4929609;29;20511;-85
2022/05/28 10:51:19;;;;;;;5.60;1.43;;;19.50;67.60;;;;;;4924410;29;20464;-86
2022/05/28 10:53:58;;;;;;;6.57;1.60;;;19.60;72.70;;;;;;4926627;29;20437;-88
2022/05/28 10:56:42;;;;;;;3.70;1.17;;;19.70;69.90;;;;;;4924137;29;20467;-86
2022/05/28 10:59:16;;;;;;;2.40;1.60;;;19.00;69.20;;;;;;4922831;29;20518;-89
2022/05/28 11:01:57;;;;;;;8.00;1.57;;;18.90;66.10;;;;;;4928242;29;20457;-87
2022/05/28 11:04:33;;;;;;;7.97;2.03;;;18.60;67.10;;;;;;4924745;29;20468;-86
2022/05/28 11:07:04;;;;;;;7.10;2.00;;;18.40;65.90;;;;;;4924979;29;20461;-88
2022/05/28 11:09:40;;;;;;;2.50;1.43;;;17.60;73.20;;;;;;4933401;29;20444;-85
2022/05/28 11:12:24;;;;;;;5.90;1.60;;;17.40;73.70;;;;;;4931753;29;20437;-86
2022/05/28 11:15:20;;;;;;;5.10;1.20;;;17.20;75.60;;;;;;4923548;29;20555;-87
2022/05/28 11:18:17;;;;;;;4.23;1.47;;;17.60;82.80;;;;;;4901081;29;20480;-85
2022/05/28 11:21:13;;;;;;;5.77;1.40;;;18.60;76.60;;;;;;4921509;29;20449;-88
2022/05/28 11:23:42;;;;;;;5.23;1.70;;;18.70;73.40;;;;;;4923241;29;20465;-87
2022/05/28 11:26:34;;;;;;;7.43;1.83;;;18.70;63.00;;;;;;4930098;29;20487;-85
2022/05/28 11:29:14;;;;;;;8.20;1.30;;;18.70;63.80;;;;;;4930906;29;20437;-86
2022/05/28 11:31:50;;;;;;;2.33;0.87;;;18.40;62.20;;;;;;4924627;29;21331;-84
2022/05/28 11:34:23;;;;;;;2.13;0.80;;;18.30;67.40;;;;;;4926330;29;20436;-84
2022/05/28 11:36:55;;;;;;;4.00;1.30;;;18.30;70.40;;;;;;4920274;29;20441;-87
2022/05/28 11:39:32;;;;;;;4.53;1.20;;;18.40;69.80;;;;;;4928088;29;20462;-86
2022/05/28 11:42:09;;;;;;;5.83;1.60;;;18.40;70.60;;;;;;4928472;29;20449;-88
2022/05/28 11:44:47;;;;;;;6.57;1.10;;;18.00;70.80;;;;;;4931243;29;20977;-88
2022/05/28 11:47:35;;;;;;;9.40;1.70;;;18.00;70.20;;;;;;4922362;29;20445;-84
2022/05/28 11:53:38;;;;;;;1.90;1.00;;;17.50;70.90;;;;;;4923418;29;20501;-85
2022/05/28 11:56:30;;;;;;;4.10;1.00;;;17.90;74.30;;;;;;4927884;29;20445;-89
2022/05/28 11:59:15;;;;;;;7.53;1.70;;;17.60;72.30;;;;;;4929982;29;20466;-86
2022/05/28 12:01:49;;;;;;;4.70;1.47;;;18.20;71.50;;;;;;4927349;29;20458;-86
2022/05/28 12:04:15;;;;;;;4.20;1.40;;;;;;;;;;4921863;29;20461;-84
2022/05/28 12:06:53;;;;;;;2.77;1.30;;;19.00;70.00;;;;;;4923414;29;20441;-87
2022/05/28 12:09:25;;;;;;;3.67;1.27;;;18.80;71.60;;;;;;4923775;29;20468;-87
2022/05/28 12:12:02;;;;;;;3.27;1.43;;;18.80;72.50;;;;;;4937361;28;20524;-87
2022/05/28 12:14:35;;;;;;;5.60;1.20;;;19.00;65.70;;;;;;4928246;29;20437;-88
2022/05/28 12:17:18;;;;;;;5.20;1.30;;;19.00;66.30;;;;;;4922243;29;20442;-86
2022/05/28 12:19:55;;;;;;;7.17;1.67;;;18.80;66.60;;;;;;4930472;29;20537;-86
2022/05/28 12:22:36;;;;;;;5.33;1.17;;;18.70;68.90;;;;;;4921890;29;20556;-84
2022/05/28 12:25:19;;;;;;;8.30;1.60;;;19.10;71.00;;;;;;4921393;29;20451;-87
2022/05/28 12:28:08;;;;;;;3.13;1.33;;;19.70;65.90;;;;;;4920866;29;20441;-88
2022/05/28 12:30:41;;;;;;;4.73;1.13;;;18.70;69.00;;;;;;4925955;29;20464;-85
2022/05/28 12:33:21;;;;;;;2.83;0.90;;;18.40;66.80;;;;;;4928279;29;20456;-88
2022/05/28 12:35:58;;;;;;;3.13;1.00;;;18.40;68.00;;;;;;4923275;29;20526;-86
2022/05/28 12:38:35;;;;;;;8.50;1.43;;;17.90;66.20;;;;;;4922514;29;21014;-87
2022/05/28 12:41:03;;;;;;;3.33;2.27;;;17.90;68.90;;;;;;4919690;29;20986;-86
2022/05/28 12:43:37;;;;;;;5.87;1.10;;;18.10;72.10;;;;;;4922771;29;20418;-85
2022/05/28 12:46:16;;;;;;;3.30;0.97;;;18.10;65.30;;;;;;4921696;29;20955;-81
2022/05/28 12:48:43;;;;;;;5.97;1.40;;;18.10;65.20;;;;;;4924108;29;20512;-88
2022/05/28 12:51:35;;;;;;;1.73;0.80;;;18.00;65.00;;;;;;4932027;29;20459;-86
2022/05/28 12:54:03;;;;;;;5.40;1.50;;;17.90;66.50;;;;;;4931216;29;20970;-86
2022/05/28 12:56:34;;;;;;;8.00;1.00;;;17.70;68.20;;;;;;4924377;23;20600;-88
2022/05/28 12:59:28;;;;;;;2.43;0.90;;;17.90;67.00;;;;;;4908888;29;20590;-87
2022/05/28 13:02:11;;;;;;;3.53;1.10;;;18.30;68.80;;;;;;4915923;29;20446;-89
2022/05/28 13:04:42;;;;;;;3.27;1.20;;;18.40;68.30;;;;;;4917754;29;20462;-89
2022/05/28 13:07:27;;;;;;;5.13;1.10;;;18.60;63.20;;;;;;4907544;29;20533;-88
2022/05/28 13:10:01;;;;;;;5.27;1.10;;;18.40;65.80;;;;;;4904063;29;20458;-88
2022/05/28 13:12:33;;;;;;;3.33;1.63;;;18.40;65.10;;;;;;4892447;29;20462;-87
2022/05/28 13:14:59;;;;;;;4.13;0.97;;;;;;;;;;4893341;29;20459;-88
2022/05/28 13:18:04;;;;;;;1.67;0.90;;;19.10;65.40;;;;;;4912455;29;20476;-90
2022/05/28 13:20:38;;;;;;;6.50;1.30;;;18.50;63.00;;;;;;4913939;29;20474;-89
2022/05/28 13:23:41;;;;;;;1.47;0.90;;;18.50;64.40;;;;;;4896255;29;20447;-88
2022/05/28 13:26:17;;;;;;;2.70;0.93;;;18.50;65.90;;;;;;4915415;29;20441;-88
2022/05/28 13:29:20;;;;;;;2.17;1.40;;;18.40;64.80;;;;;;4895790;29;20859;-86
2022/05/28 13:31:55;;;;;;;4.00;1.13;;;18.70;62.60;;;;;;4892817;29;20449;-86
2022/05/28 13:34:26;;;;;;;6.33;1.40;;;18.70;68.00;;;;;;4896064;29;21050;-88
2022/05/28 13:36:52;;;;;;;4.40;1.37;;;18.60;63.80;;;;;;4902453;29;21206;-87
2022/05/28 13:39:18;;;;;;;3.80;0.93;;;18.40;63.70;;;;;;4899909;29;20513;-87
2022/05/28 13:41:46;;;;;;;3.43;0.83;;;18.60;66.90;;;;;;4901168;29;20441;-87
2022/05/28 13:44:15;;;;;;;5.87;1.13;;;18.80;62.40;;;;;;4900952;29;20473;-86
2022/05/28 13:46:51;;;;;;;5.47;1.77;;;18.80;65.20;;;;;;4903300;29;20453;-87
2022/05/28 13:49:21;;;;;;;4.43;1.30;;;18.80;62.90;;;;;;4911249;29;20470;-85
2022/05/28 13:52:10;;;;;;;5.90;1.47;;;19.00;66.80;;;;;;4910281;29;20977;-86
2022/05/28 13:54:36;;;;;;;3.53;1.97;;;;;;;;;;4893499;29;20470;-86
2022/05/28 13:57:05;;;;;;;1.73;0.80;;;19.50;64.00;;;;;;4898837;29;20464;-87
2022/05/28 13:59:38;;;;;;;4.83;1.40;;;19.70;60.70;;;;;;4895405;29;20439;-86
2022/05/28 14:02:14;;;;;;;4.13;1.00;;;19.80;63.50;;;;;;4895036;29;21055;-86